Time;durP1;ratioP1;P1;durP2;ratioP2;P2;SDS_P1;SDS_P2;PMS_P1;PMS_P2;Temp;Humidity;BMP_temperature;BMP_pressure;BME280_temperature;BME280_humidity;BME280_pressure;Samples;Min_cycle;Max_cycle;Signal;HPM_P1;HPM_P2
2024/02/18 00:00:06;;;;;;;11.27;8.02;;;11.00;99.90;;;;;;5012825;28;20218;-74
2024/02/18 00:02:34;;;;;;;10.20;7.35;;;10.90;99.90;;;;;;5018293;28;20309;-73
2024/02/18 00:05:01;;;;;;;10.57;7.80;;;10.90;99.90;;;;;;5016044;28;20315;-73
2024/02/18 00:07:28;;;;;;;9.70;7.80;;;10.90;99.90;;;;;;5022014;28;20223;-74
2024/02/18 00:09:57;;;;;;;10.07;7.40;;;10.80;99.90;;;;;;5001477;28;20205;-73
2024/02/18 00:12:24;;;;;;;9.85;7.15;;;10.80;99.90;;;;;;5013854;28;20285;-74
2024/02/18 00:14:52;;;;;;;8.65;7.10;;;10.80;99.90;;;;;;5016052;28;20202;-74
2024/02/18 00:17:19;;;;;;;7.00;6.30;;;10.80;99.90;;;;;;5018294;28;20776;-73
2024/02/18 00:19:46;;;;;;;7.60;6.10;;;10.80;99.90;;;;;;5015486;28;20206;-74
2024/02/18 00:22:13;;;;;;;8.00;6.53;;;10.80;99.90;;;;;;5018652;28;20243;-74
2024/02/18 00:24:40;;;;;;;7.90;6.28;;;10.80;99.90;;;;;;5021574;28;20215;-74
2024/02/18 00:27:10;;;;;;;8.18;6.07;;;10.90;99.90;;;;;;5002965;28;20251;-74
2024/02/18 00:29:37;;;;;;;9.07;6.35;;;10.80;99.90;;;;;;5015397;28;20204;-74
2024/02/18 00:32:04;;;;;;;6.93;6.07;;;10.90;99.90;;;;;;5012655;28;20661;-74
2024/02/18 00:34:31;;;;;;;8.80;6.47;;;10.90;99.90;;;;;;5017397;28;20255;-75
2024/02/18 00:36:58;;;;;;;8.73;6.25;;;10.90;99.90;;;;;;5016258;28;20293;-74
2024/02/18 00:39:25;;;;;;;7.25;5.53;;;10.90;99.90;;;;;;5022308;28;20192;-74
2024/02/18 00:41:53;;;;;;;6.70;5.63;;;10.90;99.90;;;;;;5021465;28;20255;-75
2024/02/18 00:44:23;;;;;;;6.22;5.22;;;10.90;99.90;;;;;;5005008;28;20227;-74
2024/02/18 00:46:50;;;;;;;9.23;6.18;;;10.90;99.90;;;;;;5019523;28;20223;-74
2024/02/18 00:49:17;;;;;;;8.13;6.20;;;10.90;99.90;;;;;;5022333;28;20741;-74
2024/02/18 00:51:44;;;;;;;9.73;6.43;;;10.90;99.90;;;;;;5019041;28;20231;-74
2024/02/18 00:54:11;;;;;;;7.53;5.97;;;10.80;99.90;;;;;;5022964;28;20227;-74
2024/02/18 00:56:38;;;;;;;8.48;7.57;;;10.80;99.90;;;;;;5019268;28;20313;-74
2024/02/18 00:59:05;;;;;;;8.75;7.40;;;10.80;99.90;;;;;;5021752;28;20747;-74
2024/02/18 01:01:34;;;;;;;8.32;6.68;;;10.80;99.90;;;;;;5021319;28;20389;-74
2024/02/18 01:04:01;;;;;;;10.40;7.50;;;10.80;99.90;;;;;;5018967;28;20209;-74
2024/02/18 01:06:28;;;;;;;10.52;6.97;;;10.80;99.90;;;;;;5020838;28;20308;-74
2024/02/18 01:08:55;;;;;;;7.70;5.88;;;10.80;99.90;;;;;;5021133;28;20752;-74
2024/02/18 01:11:22;;;;;;;7.53;5.90;;;10.80;99.90;;;;;;5019888;28;20247;-74
2024/02/18 01:13:49;;;;;;;8.20;6.28;;;10.80;99.90;;;;;;5001516;28;20203;-75
2024/02/18 01:16:16;;;;;;;9.85;7.15;;;10.70;99.90;;;;;;5023290;28;20913;-73
2024/02/18 01:18:45;;;;;;;8.15;6.13;;;10.70;99.90;;;;;;5019797;28;20232;-74
2024/02/18 01:21:12;;;;;;;7.38;5.78;;;10.60;99.90;;;;;;5016773;28;20235;-74
2024/02/18 01:23:39;;;;;;;7.00;5.93;;;10.70;99.90;;;;;;5025390;28;20228;-74
2024/02/18 01:26:06;;;;;;;7.43;6.40;;;10.70;99.90;;;;;;5021062;28;20258;-74
2024/02/18 01:28:33;;;;;;;7.03;6.43;;;10.60;99.90;;;;;;5019556;28;20223;-74
2024/02/18 01:31:00;;;;;;;7.50;5.97;;;10.60;99.90;;;;;;5022389;28;20313;-74
2024/02/18 01:33:27;;;;;;;6.63;5.88;;;10.60;99.90;;;;;;5023588;28;20231;-74
2024/02/18 01:35:55;;;;;;;6.90;5.55;;;10.60;99.90;;;;;;5020846;28;20263;-74
2024/02/18 01:38:22;;;;;;;7.88;5.85;;;10.60;99.90;;;;;;5018149;28;20262;-74
2024/02/18 01:40:49;;;;;;;6.10;5.32;;;10.60;99.90;;;;;;5019458;28;20309;-74
2024/02/18 01:43:17;;;;;;;6.03;5.30;;;10.50;99.90;;;;;;5018447;28;20192;-74
2024/02/18 01:45:46;;;;;;;6.20;5.35;;;10.60;99.90;;;;;;5016783;28;20305;-74
2024/02/18 01:48:14;;;;;;;5.40;4.90;;;10.60;99.90;;;;;;5021646;28;20687;-74
2024/02/18 01:50:41;;;;;;;4.93;4.43;;;10.60;99.90;;;;;;5025239;28;20646;-74
2024/02/18 01:53:10;;;;;;;6.60;5.20;;;10.60;99.90;;;;;;5017848;28;20258;-75
2024/02/18 01:55:38;;;;;;;4.57;3.97;;;10.60;99.90;;;;;;5019913;28;20346;-74
2024/02/18 01:58:06;;;;;;;5.15;4.45;;;10.50;99.90;;;;;;5021493;28;20263;-74
2024/02/18 02:00:33;;;;;;;6.13;5.53;;;10.50;99.90;;;;;;5019101;28;20251;-74
2024/02/18 02:03:01;;;;;;;5.57;4.68;;;10.50;99.90;;;;;;5019519;28;20257;-74
2024/02/18 02:05:29;;;;;;;4.80;4.35;;;10.50;99.90;;;;;;5019621;28;20231;-74
2024/02/18 02:07:56;;;;;;;4.88;4.15;;;10.60;99.90;;;;;;5019924;28;20265;-74
2024/02/18 02:10:25;;;;;;;4.47;4.07;;;10.60;99.90;;;;;;5019226;28;20223;-74
2024/02/18 02:12:52;;;;;;;4.40;4.00;;;10.60;99.90;;;;;;5019877;28;20208;-74
2024/02/18 02:15:19;;;;;;;4.35;3.92;;;10.60;99.90;;;;;;5021707;28;20227;-74
2024/02/18 02:17:46;;;;;;;4.63;4.22;;;10.60;99.90;;;;;;5021154;28;20227;-74
2024/02/18 02:20:13;;;;;;;4.32;3.92;;;10.60;99.90;;;;;;5018333;28;20220;-75
2024/02/18 02:22:40;;;;;;;4.05;3.65;;;10.50;99.90;;;;;;5021552;28;20203;-74
2024/02/18 02:25:10;;;;;;;4.53;4.13;;;10.50;99.90;;;;;;5018008;28;20243;-74
2024/02/18 02:27:42;;;;;;;5.03;4.53;;;10.50;99.90;;;;;;5019917;28;20672;-74
2024/02/18 02:30:12;;;;;;;4.95;4.45;;;10.40;99.90;;;;;;5023564;28;20706;-74
2024/02/18 02:32:39;;;;;;;5.07;4.57;;;10.40;99.90;;;;;;5021147;28;20735;-74
2024/02/18 02:35:06;;;;;;;4.68;4.18;;;10.40;99.90;;;;;;5020470;28;22428;-74
2024/02/18 02:37:34;;;;;;;4.50;4.10;;;10.40;99.90;;;;;;5021967;28;20211;-74
2024/02/18 02:40:03;;;;;;;4.38;3.97;;;10.40;99.90;;;;;;5016278;28;20273;-74
2024/02/18 02:42:30;;;;;;;5.38;4.10;;;10.40;99.90;;;;;;5021709;28;20204;-74
2024/02/18 02:44:57;;;;;;;4.57;4.03;;;10.30;99.90;;;;;;5014153;28;20223;-74
2024/02/18 02:47:25;;;;;;;3.88;3.53;;;10.30;99.90;;;;;;5024961;28;20292;-74
2024/02/18 02:49:52;;;;;;;3.90;3.55;;;10.30;99.90;;;;;;5020233;28;20196;-74
2024/02/18 02:52:19;;;;;;;4.07;3.20;;;10.30;99.90;;;;;;5017607;28;20927;-74
2024/02/18 02:54:46;;;;;;;3.58;3.28;;;10.30;99.90;;;;;;5016821;28;20204;-74
2024/02/18 02:57:13;;;;;;;3.42;3.13;;;10.40;99.90;;;;;;5019709;28;20298;-74
2024/02/18 02:59:40;;;;;;;2.90;2.70;;;10.40;99.90;;;;;;5018426;28;20236;-73
2024/02/18 03:02:08;;;;;;;3.53;3.22;;;10.30;99.90;;;;;;5023437;28;20856;-73
2024/02/18 03:04:36;;;;;;;3.60;3.30;;;10.30;99.90;;;;;;5017351;28;20200;-73
2024/02/18 03:07:04;;;;;;;3.58;3.28;;;10.30;99.90;;;;;;5018502;28;20319;-74
2024/02/18 03:09:31;;;;;;;3.20;2.90;;;10.30;99.90;;;;;;5020018;28;20199;-74
2024/02/18 03:11:58;;;;;;;3.03;2.80;;;10.20;99.90;;;;;;5016243;28;20239;-74
2024/02/18 03:14:25;;;;;;;3.42;3.15;;;10.20;99.90;;;;;;5019384;28;20222;-74
2024/02/18 03:16:52;;;;;;;3.45;3.17;;;10.20;99.90;;;;;;5016203;28;20301;-73
2024/02/18 03:19:19;;;;;;;2.92;2.72;;;10.10;99.90;;;;;;5017898;28;20982;-73
2024/02/18 03:21:48;;;;;;;3.58;3.28;;;10.10;99.90;;;;;;5019277;28;20227;-74
2024/02/18 03:24:14;;;;;;;3.60;3.30;;;10.00;99.90;;;;;;5018154;28;20208;-73
2024/02/18 03:26:41;;;;;;;3.28;2.97;;;10.00;99.90;;;;;;5016160;28;20220;-73
2024/02/18 03:29:09;;;;;;;3.33;3.03;;;10.00;99.90;;;;;;5018011;28;21043;-74
2024/02/18 03:31:36;;;;;;;3.90;3.60;;;10.00;99.90;;;;;;5016862;28;20229;-73
2024/02/18 03:34:03;;;;;;;3.33;3.10;;;10.00;99.90;;;;;;5019351;28;20212;-73
2024/02/18 03:36:31;;;;;;;3.85;3.45;;;9.90;99.90;;;;;;5018530;28;20309;-73
2024/02/18 03:38:59;;;;;;;3.20;3.00;;;9.90;99.90;;;;;;5013577;28;20207;-73
2024/02/18 03:41:26;;;;;;;3.00;2.78;;;9.90;99.90;;;;;;5015620;28;20226;-74
2024/02/18 03:43:53;;;;;;;2.97;2.78;;;9.80;99.90;;;;;;5016756;28;20227;-75
2024/02/18 03:46:20;;;;;;;3.67;3.38;;;9.80;99.90;;;;;;5012175;28;20228;-75
2024/02/18 03:48:47;;;;;;;3.28;3.03;;;9.80;99.90;;;;;;5016380;28;20243;-74
2024/02/18 03:51:14;;;;;;;3.25;3.05;;;9.80;99.90;;;;;;5013988;28;20665;-75
2024/02/18 03:53:41;;;;;;;3.38;3.17;;;9.80;99.90;;;;;;5021409;28;20288;-75
2024/02/18 03:56:09;;;;;;;3.20;3.00;;;9.80;99.90;;;;;;5012433;28;20287;-74
2024/02/18 03:58:36;;;;;;;2.80;2.60;;;9.80;99.90;;;;;;5019181;28;20747;-74
2024/02/18 04:01:03;;;;;;;3.25;3.05;;;9.80;99.90;;;;;;4998067;28;20236;-74
2024/02/18 04:03:30;;;;;;;3.00;2.80;;;9.80;99.90;;;;;;5021912;28;20200;-75
2024/02/18 04:05:57;;;;;;;4.13;2.72;;;9.80;99.90;;;;;;5019244;28;20243;-75
2024/02/18 04:08:24;;;;;;;3.22;2.92;;;9.70;99.90;;;;;;5017326;28;20227;-75
2024/02/18 04:10:51;;;;;;;3.15;2.88;;;9.70;99.90;;;;;;5018797;28;20259;-75
2024/02/18 04:13:20;;;;;;;2.70;2.50;;;9.70;99.90;;;;;;5016790;28;20200;-75
2024/02/18 04:15:46;;;;;;;2.88;2.67;;;9.70;99.90;;;;;;5015287;28;20882;-74
2024/02/18 04:18:14;;;;;;;2.88;2.67;;;9.70;99.90;;;;;;5020445;28;20231;-74
2024/02/18 04:20:41;;;;;;;3.42;3.13;;;9.70;99.90;;;;;;5017120;28;20315;-74
2024/02/18 04:23:09;;;;;;;2.95;2.75;;;9.70;99.90;;;;;;5018706;28;20261;-75
2024/02/18 04:25:36;;;;;;;3.00;2.80;;;9.60;99.90;;;;;;5010878;28;20254;-75
2024/02/18 04:28:03;;;;;;;3.15;2.88;;;9.60;99.90;;;;;;5016616;28;20214;-75
2024/02/18 04:30:32;;;;;;;3.25;3.05;;;9.60;99.90;;;;;;5015300;28;20219;-74
2024/02/18 04:32:59;;;;;;;4.88;2.90;;;9.50;99.90;;;;;;5019594;28;20200;-74
2024/02/18 04:35:26;;;;;;;3.00;2.80;;;9.60;99.90;;;;;;5016852;28;20255;-75
2024/02/18 04:37:53;;;;;;;3.20;2.90;;;9.50;99.90;;;;;;5013355;28;20219;-74
2024/02/18 04:40:20;;;;;;;3.17;2.88;;;9.50;99.90;;;;;;5019153;28;20318;-74
2024/02/18 04:42:47;;;;;;;3.28;3.03;;;9.40;99.90;;;;;;5019872;28;20751;-74
2024/02/18 04:45:14;;;;;;;3.85;3.00;;;9.40;99.90;;;;;;5016999;28;20300;-74
2024/02/18 04:47:42;;;;;;;2.70;2.50;;;9.30;99.90;;;;;;5017384;28;20228;-74
2024/02/18 04:50:09;;;;;;;2.65;2.45;;;9.30;99.90;;;;;;5018348;28;20230;-74
2024/02/18 04:52:36;;;;;;;2.83;2.63;;;9.20;99.90;;;;;;5016170;28;20223;-74
2024/02/18 04:55:04;;;;;;;2.53;2.42;;;9.20;99.90;;;;;;5013162;28;20731;-74
2024/02/18 04:57:31;;;;;;;2.90;2.70;;;9.20;99.90;;;;;;5020294;28;20195;-74
2024/02/18 04:59:58;;;;;;;2.47;2.30;;;9.20;99.90;;;;;;5016073;28;20289;-74
2024/02/18 05:02:25;;;;;;;2.33;2.22;;;9.20;99.90;;;;;;5019278;28;20296;-74
2024/02/18 05:04:53;;;;;;;2.75;2.55;;;9.20;99.90;;;;;;5019380;28;20195;-74
2024/02/18 05:07:20;;;;;;;2.42;2.30;;;9.20;99.90;;;;;;5020840;28;20285;-74
2024/02/18 05:09:47;;;;;;;3.65;2.42;;;9.20;99.90;;;;;;5017996;28;20200;-74
2024/02/18 05:12:14;;;;;;;2.85;2.65;;;9.20;99.90;;;;;;5016165;28;20240;-74
2024/02/18 05:14:41;;;;;;;2.33;2.22;;;9.20;99.90;;;;;;5018109;28;20286;-74
2024/02/18 05:17:08;;;;;;;2.55;2.38;;;9.20;99.90;;;;;;5018063;28;20247;-74
2024/02/18 05:19:35;;;;;;;2.47;2.38;;;9.20;99.90;;;;;;5020605;28;20223;-74
2024/02/18 05:22:04;;;;;;;2.40;2.30;;;9.20;99.90;;;;;;5015608;28;20670;-74
2024/02/18 05:24:32;;;;;;;2.72;2.53;;;9.20;99.90;;;;;;5019120;28;20199;-74
2024/02/18 05:26:59;;;;;;;2.47;2.38;;;9.20;99.90;;;;;;5018181;28;20798;-74
2024/02/18 05:29:26;;;;;;;2.83;2.63;;;9.20;99.90;;;;;;5022284;28;20706;-74
2024/02/18 05:31:54;;;;;;;3.05;2.85;;;9.10;99.90;;;;;;5014007;28;20270;-73
2024/02/18 05:34:21;;;;;;;2.72;2.53;;;9.10;99.90;;;;;;5023902;28;20292;-73
2024/02/18 05:36:48;;;;;;;2.72;2.53;;;9.00;99.90;;;;;;5020772;28;20313;-75
2024/02/18 05:39:17;;;;;;;2.97;2.78;;;9.00;99.90;;;;;;5020454;28;20200;-75
2024/02/18 05:41:44;;;;;;;2.75;2.55;;;9.00;99.90;;;;;;5021350;28;20299;-75
2024/02/18 05:44:11;;;;;;;2.55;2.40;;;8.90;99.90;;;;;;5019073;28;20228;-75
2024/02/18 05:46:38;;;;;;;3.53;3.22;;;8.90;99.90;;;;;;5024142;28;20219;-75
2024/02/18 05:49:05;;;;;;;3.75;3.45;;;8.90;99.90;;;;;;5019845;28;20618;-75
2024/02/18 05:51:32;;;;;;;3.47;3.28;;;8.80;99.90;;;;;;5016930;28;20307;-75
2024/02/18 05:53:59;;;;;;;3.55;3.25;;;8.90;99.90;;;;;;5019697;28;20231;-74
2024/02/18 05:56:27;;;;;;;3.25;3.05;;;8.80;99.90;;;;;;5020275;28;20306;-74
2024/02/18 05:58:54;;;;;;;3.38;3.17;;;8.80;99.90;;;;;;5021200;28;20285;-74
2024/02/18 06:01:21;;;;;;;3.25;3.05;;;8.80;99.90;;;;;;5014597;28;20247;-70
2024/02/18 06:03:48;;;;;;;3.08;2.88;;;8.80;99.90;;;;;;5017927;28;20196;-70
2024/02/18 06:06:16;;;;;;;4.03;3.10;;;8.80;99.90;;;;;;5019777;28;21007;-74
2024/02/18 06:08:43;;;;;;;3.20;3.00;;;8.80;99.90;;;;;;5021470;28;20211;-74
2024/02/18 06:11:10;;;;;;;3.25;3.05;;;8.80;99.90;;;;;;5020758;28;20211;-74
2024/02/18 06:13:41;;;;;;;3.17;2.97;;;8.80;99.90;;;;;;5019364;28;20235;-74
2024/02/18 06:16:08;;;;;;;2.85;2.65;;;8.80;99.90;;;;;;5024332;28;20223;-74
2024/02/18 06:18:35;;;;;;;2.85;2.65;;;8.80;99.90;;;;;;5016728;28;20207;-74
2024/02/18 06:21:02;;;;;;;3.45;3.25;;;8.70;99.90;;;;;;5019370;28;20303;-74
2024/02/18 06:23:29;;;;;;;3.10;2.90;;;8.70;99.90;;;;;;5021416;28;20207;-74
2024/02/18 06:25:56;;;;;;;3.00;2.80;;;8.60;99.90;;;;;;5020427;28;20309;-74
2024/02/18 06:28:23;;;;;;;3.00;2.80;;;8.60;99.90;;;;;;5020951;28;20208;-74
2024/02/18 06:30:51;;;;;;;2.97;2.78;;;8.60;99.90;;;;;;5006817;28;20377;-74
2024/02/18 06:33:19;;;;;;;2.85;2.65;;;8.60;99.90;;;;;;5022833;28;20409;-74
2024/02/18 06:35:48;;;;;;;3.05;2.85;;;8.60;99.90;;;;;;5017179;28;20609;-75
2024/02/18 06:38:15;;;;;;;3.00;2.80;;;8.60;99.90;;;;;;5017142;28;20200;-75
2024/02/18 06:40:42;;;;;;;2.60;2.40;;;8.60;99.90;;;;;;5019990;28;20236;-75
2024/02/18 06:43:09;;;;;;;2.70;2.50;;;8.60;99.90;;;;;;5019182;28;20286;-74
2024/02/18 06:45:36;;;;;;;2.70;2.55;;;8.70;99.90;;;;;;5019265;28;20224;-74
2024/02/18 06:48:05;;;;;;;2.80;2.60;;;8.70;99.90;;;;;;5019117;28;20216;-73
2024/02/18 06:50:32;;;;;;;2.83;2.58;;;8.70;99.90;;;;;;5015612;28;20836;-73
2024/02/18 06:53:00;;;;;;;2.90;2.70;;;8.70;99.90;;;;;;5019444;28;20286;-73
2024/02/18 06:55:26;;;;;;;2.90;2.70;;;8.70;99.90;;;;;;5015850;28;21066;-73
2024/02/18 06:57:53;;;;;;;2.50;2.40;;;8.70;99.90;;;;;;5017767;28;20277;-74
2024/02/18 07:00:21;;;;;;;2.83;2.63;;;8.80;99.90;;;;;;5020819;28;20279;-74
2024/02/18 07:02:48;;;;;;;2.75;2.55;;;8.80;99.90;;;;;;5013656;28;20212;-74
2024/02/18 07:05:16;;;;;;;2.90;2.70;;;8.80;99.90;;;;;;5017777;28;20285;-74
2024/02/18 07:07:43;;;;;;;3.00;2.80;;;8.90;99.90;;;;;;5014661;28;20247;-73
2024/02/18 07:10:10;;;;;;;2.90;2.70;;;8.90;99.90;;;;;;5017172;28;20285;-74
2024/02/18 07:12:37;;;;;;;2.80;2.60;;;8.90;99.90;;;;;;5018836;28;21405;-74
2024/02/18 07:15:05;;;;;;;2.80;2.60;;;8.90;99.90;;;;;;5015903;28;20310;-74
2024/02/18 07:17:32;;;;;;;2.90;2.70;;;9.00;99.90;;;;;;5016871;28;20246;-73
2024/02/18 07:19:59;;;;;;;3.00;2.80;;;9.00;99.90;;;;;;5018390;28;20204;-73
2024/02/18 07:22:27;;;;;;;2.35;2.25;;;9.00;99.90;;;;;;5017239;28;20674;-73
2024/02/18 07:24:54;;;;;;;2.72;2.63;;;9.00;99.90;;;;;;5021316;28;20792;-73
2024/02/18 07:27:21;;;;;;;3.00;2.80;;;9.10;99.90;;;;;;5017274;28;20243;-73
2024/02/18 07:29:48;;;;;;;3.78;3.58;;;9.10;99.90;;;;;;5013307;28;20261;-74
2024/02/18 07:32:15;;;;;;;4.70;4.40;;;9.60;99.90;;;;;;5018721;28;20231;-74
2024/02/18 07:34:42;;;;;;;6.03;5.63;;;10.60;99.90;;;;;;5038725;28;20254;-74
2024/02/18 07:37:09;;;;;;;5.60;5.13;;;11.60;99.90;;;;;;5018899;28;20215;-73
2024/02/18 07:39:38;;;;;;;4.65;4.35;;;12.40;99.90;;;;;;5019253;28;20775;-73
2024/02/18 07:42:05;;;;;;;5.28;4.22;;;13.20;99.90;;;;;;5016075;28;20250;-74
2024/02/18 07:44:32;;;;;;;5.18;4.47;;;13.70;99.90;;;;;;5023102;28;20195;-75
2024/02/18 07:46:59;;;;;;;3.85;3.55;;;14.10;99.90;;;;;;5012235;28;20278;-74
2024/02/18 07:49:26;;;;;;;3.67;3.38;;;14.40;99.90;;;;;;5018821;28;20677;-74
2024/02/18 07:51:53;;;;;;;3.75;3.45;;;14.80;99.90;;;;;;5018008;28;20309;-74
2024/02/18 07:54:20;;;;;;;3.13;2.92;;;15.10;99.90;;;;;;5017499;28;20224;-74
2024/02/18 07:56:49;;;;;;;2.90;2.70;;;15.50;99.90;;;;;;5019063;28;20266;-74
2024/02/18 07:59:18;;;;;;;3.78;3.00;;;15.80;99.90;;;;;;5018385;28;20236;-74
2024/02/18 08:01:45;;;;;;;3.40;3.17;;;16.10;99.90;;;;;;5019319;28;20225;-74
2024/02/18 08:04:12;;;;;;;4.30;3.70;;;16.40;99.90;;;;;;5019275;28;20295;-75
2024/02/18 08:06:39;;;;;;;4.15;3.75;;;16.60;99.90;;;;;;5016401;28;20329;-74
2024/02/18 08:09:06;;;;;;;4.50;2.80;;;16.70;99.90;;;;;;5014193;28;20205;-74
2024/02/18 08:11:33;;;;;;;2.38;2.22;;;16.70;99.90;;;;;;5018214;28;20243;-75
2024/02/18 08:14:02;;;;;;;2.42;2.30;;;16.60;99.90;;;;;;5013778;28;20203;-74
2024/02/18 08:16:28;;;;;;;2.50;2.30;;;16.60;99.90;;;;;;5011145;28;20306;-74
2024/02/18 08:18:56;;;;;;;2.30;2.10;;;16.80;99.90;;;;;;5015573;28;20300;-74
2024/02/18 08:21:23;;;;;;;3.33;3.00;;;17.10;99.90;;;;;;5018898;28;20247;-74
2024/02/18 08:23:51;;;;;;;2.60;2.40;;;17.10;99.90;;;;;;5021293;28;20203;-74
2024/02/18 08:26:26;;;;;;;2.85;2.65;;;17.30;99.90;;;;;;5015584;28;20766;-74
2024/02/18 08:28:53;;;;;;;2.50;2.30;;;17.30;99.90;;;;;;5018007;28;20246;-74
2024/02/18 08:31:22;;;;;;;2.78;2.58;;;17.40;99.90;;;;;;5018495;28;20314;-74
2024/02/18 08:33:50;;;;;;;2.70;2.50;;;17.60;99.90;;;;;;5021373;28;20290;-75
2024/02/18 08:36:17;;;;;;;3.33;2.90;;;17.80;99.90;;;;;;5014321;28;20274;-74
2024/02/18 08:38:44;;;;;;;3.10;2.90;;;18.10;99.90;;;;;;5016951;28;20282;-75
2024/02/18 08:41:12;;;;;;;3.70;3.33;;;18.30;99.90;;;;;;5019667;28;20223;-74
2024/02/18 08:43:42;;;;;;;4.28;3.72;;;18.30;99.90;;;;;;5017822;28;20611;-75
2024/02/18 08:46:09;;;;;;;2.95;2.75;;;18.40;99.90;;;;;;5013539;28;20722;-74
2024/02/18 08:48:39;;;;;;;4.60;4.00;;;18.30;99.90;;;;;;5018139;28;20700;-75
2024/02/18 08:51:07;;;;;;;5.10;3.70;;;18.30;99.90;;;;;;5017825;28;20219;-74
2024/02/18 08:53:36;;;;;;;3.33;3.03;;;18.30;99.90;;;;;;5016935;28;20200;-74
2024/02/18 08:56:03;;;;;;;3.50;2.90;;;18.50;99.90;;;;;;5011159;28;20251;-75
2024/02/18 08:58:31;;;;;;;3.10;2.80;;;18.70;99.90;;;;;;5016278;28;20788;-76
2024/02/18 09:00:58;;;;;;;2.83;2.63;;;18.70;99.90;;;;;;5010880;28;20253;-75
2024/02/18 09:03:25;;;;;;;3.05;2.78;;;18.90;99.90;;;;;;5020123;28;20223;-75
2024/02/18 09:05:53;;;;;;;3.10;2.50;;;19.00;99.90;;;;;;5019021;28;20219;-75
2024/02/18 09:08:21;;;;;;;2.30;2.10;;;19.20;99.90;;;;;;5017460;28;20224;-75
2024/02/18 09:10:48;;;;;;;4.05;2.30;;;19.50;99.90;;;;;;5020008;28;20306;-75
2024/02/18 09:13:15;;;;;;;2.70;2.47;;;19.40;99.90;;;;;;5017206;28;20231;-75
2024/02/18 09:15:42;;;;;;;4.90;2.80;;;19.30;99.90;;;;;;5021889;28;20251;-75
2024/02/18 09:18:09;;;;;;;2.88;2.67;;;19.20;99.90;;;;;;5020253;28;20305;-75
2024/02/18 09:20:36;;;;;;;3.03;2.72;;;19.20;99.90;;;;;;5019856;28;20240;-75
2024/02/18 09:23:05;;;;;;;2.75;2.53;;;19.10;99.90;;;;;;5020410;28;20213;-76
2024/02/18 09:25:32;;;;;;;4.05;2.72;;;19.10;99.90;;;;;;5024096;28;20224;-74
2024/02/18 09:27:59;;;;;;;2.70;2.50;;;19.10;99.90;;;;;;5024784;28;20856;-74
2024/02/18 09:30:26;;;;;;;3.30;2.85;;;19.10;99.90;;;;;;5018121;28;20273;-74
2024/02/18 09:32:55;;;;;;;3.15;2.85;;;19.30;99.90;;;;;;5020316;28;20223;-74
2024/02/18 09:35:22;;;;;;;3.17;2.90;;;19.10;99.90;;;;;;5020199;28;20869;-74
2024/02/18 09:37:49;;;;;;;3.90;3.10;;;19.20;99.90;;;;;;5020754;28;20767;-74
2024/02/18 09:40:17;;;;;;;3.53;3.22;;;19.00;99.90;;;;;;5014390;28;20224;-74
2024/02/18 09:42:44;;;;;;;3.58;2.92;;;19.00;99.90;;;;;;5014957;28;20212;-74
2024/02/18 09:45:15;;;;;;;3.42;3.00;;;19.30;99.90;;;;;;5018126;28;20823;-74
2024/02/18 09:47:44;;;;;;;3.35;3.13;;;19.60;99.90;;;;;;5019234;28;20241;-74
2024/02/18 09:50:13;;;;;;;3.92;3.40;;;19.90;99.90;;;;;;5019321;28;20303;-74
2024/02/18 09:52:42;;;;;;;4.07;3.20;;;19.90;99.90;;;;;;5017233;28;20296;-74
2024/02/18 09:55:10;;;;;;;3.28;2.97;;;20.30;99.90;;;;;;5018120;28;20230;-73
2024/02/18 09:57:39;;;;;;;2.83;2.63;;;20.40;99.90;;;;;;5015000;28;20195;-74
2024/02/18 10:00:08;;;;;;;2.88;2.60;;;20.40;99.90;;;;;;5017046;28;20232;-74
2024/02/18 10:02:35;;;;;;;3.25;2.78;;;20.40;99.90;;;;;;5018132;28;20206;-74
2024/02/18 10:05:03;;;;;;;3.85;3.10;;;20.60;99.90;;;;;;5017349;28;20844;-74
2024/02/18 10:07:32;;;;;;;3.40;2.97;;;20.70;99.90;;;;;;5014146;28;20220;-74
2024/02/18 10:10:01;;;;;;;2.47;2.28;;;20.50;99.90;;;;;;5012931;28;20285;-74
2024/02/18 10:12:29;;;;;;;2.75;2.30;;;20.30;99.90;;;;;;5017483;28;20200;-74
2024/02/18 10:15:01;;;;;;;5.55;2.80;;;20.30;99.90;;;;;;5015529;28;20908;-74
2024/02/18 10:17:28;;;;;;;3.25;2.67;;;20.30;99.90;;;;;;5018594;28;20230;-74
2024/02/18 10:19:55;;;;;;;3.05;2.65;;;19.90;99.90;;;;;;5016034;28;20231;-74
2024/02/18 10:22:25;;;;;;;2.63;2.42;;;19.90;99.90;;;;;;5018437;28;20657;-74
2024/02/18 10:24:53;;;;;;;3.30;2.63;;;20.40;99.90;;;;;;5014523;28;20778;-74
2024/02/18 10:27:20;;;;;;;2.70;2.50;;;20.70;99.90;;;;;;5016950;28;20243;-74
2024/02/18 10:29:48;;;;;;;2.70;2.45;;;20.60;99.90;;;;;;5016571;28;20309;-74
2024/02/18 10:32:17;;;;;;;2.78;2.58;;;20.20;99.90;;;;;;5017136;28;20200;-74
2024/02/18 10:34:44;;;;;;;2.63;2.42;;;20.20;99.90;;;;;;5015569;28;20649;-74
2024/02/18 10:37:18;;;;;;;3.00;2.70;;;20.50;99.90;;;;;;5013717;28;20228;-74
2024/02/18 10:39:49;;;;;;;2.53;2.33;;;20.60;99.90;;;;;;5018740;28;20740;-74
2024/02/18 10:42:19;;;;;;;3.45;2.33;;;20.40;99.90;;;;;;5036601;28;20247;-74
2024/02/18 10:44:51;;;;;;;3.15;2.60;;;20.40;99.90;;;;;;5038908;28;20729;-74
2024/02/18 10:47:23;;;;;;;2.22;2.13;;;20.40;99.90;;;;;;5033958;28;20304;-74
2024/02/18 10:49:55;;;;;;;2.92;2.72;;;20.50;99.90;;;;;;5038235;28;20209;-74
2024/02/18 10:52:31;;;;;;;2.85;2.50;;;20.70;99.90;;;;;;5033735;28;20251;-74
2024/02/18 10:55:04;;;;;;;4.75;2.35;;;20.70;99.90;;;;;;5022385;28;20231;-74
2024/02/18 10:57:42;;;;;;;2.40;2.20;;;20.80;99.90;;;;;;5034299;28;20639;-74
2024/02/18 11:00:17;;;;;;;2.90;2.38;;;20.80;99.90;;;;;;5026362;28;20658;-74
2024/02/18 11:02:50;;;;;;;2.80;2.10;;;20.60;99.90;;;;;;5032620;28;20574;-74
2024/02/18 11:05:18;;;;;;;2.45;2.10;;;20.50;99.90;;;;;;5034424;28;20243;-75
2024/02/18 11:07:46;;;;;;;2.45;2.22;;;21.00;99.90;;;;;;5033724;28;20206;-73
2024/02/18 11:10:13;;;;;;;2.47;2.28;;;21.40;99.90;;;;;;5033233;28;20293;-72
2024/02/18 11:12:44;;;;;;;2.60;2.40;;;21.30;99.90;;;;;;5041326;28;20207;-72
2024/02/18 11:15:12;;;;;;;2.45;2.10;;;20.90;99.90;;;;;;5033056;28;20218;-72
2024/02/18 11:17:40;;;;;;;2.30;2.10;;;20.50;99.90;;;;;;5016801;28;20205;-72
2024/02/18 11:20:11;;;;;;;1.83;1.73;;;20.30;99.90;;;;;;5015877;28;20802;-72
2024/02/18 11:22:39;;;;;;;2.20;2.00;;;20.10;99.90;;;;;;5015405;28;20282;-72
2024/02/18 11:25:07;;;;;;;2.15;1.95;;;19.90;99.90;;;;;;5019675;28;20262;-72
2024/02/18 11:27:37;;;;;;;1.80;1.70;;;19.80;99.90;;;;;;5035396;28;20685;-73
2024/02/18 11:30:05;;;;;;;2.20;1.88;;;19.70;99.90;;;;;;5019359;28;20210;-74
2024/02/18 11:32:32;;;;;;;1.80;1.70;;;19.50;99.90;;;;;;5039364;28;20497;-73
2024/02/18 11:35:10;;;;;;;1.90;1.80;;;19.60;99.90;;;;;;5030468;28;20272;-73
2024/02/18 11:37:39;;;;;;;1.88;1.70;;;19.70;99.90;;;;;;5036095;28;20280;-72
2024/02/18 11:40:07;;;;;;;2.00;1.83;;;19.70;99.90;;;;;;5033299;28;20375;-73
2024/02/18 11:42:36;;;;;;;1.90;1.70;;;19.80;99.90;;;;;;5036488;28;20238;-72
2024/02/18 11:45:11;;;;;;;1.60;1.50;;;20.10;99.90;;;;;;5039242;28;20225;-73
2024/02/18 11:47:39;;;;;;;2.13;1.48;;;20.30;99.90;;;;;;5029652;28;20712;-72
2024/02/18 11:50:08;;;;;;;1.90;1.67;;;20.20;99.90;;;;;;5017005;28;20786;-73
2024/02/18 11:52:38;;;;;;;2.85;1.58;;;20.10;99.90;;;;;;5037055;28;20414;-72
2024/02/18 11:55:15;;;;;;;1.30;1.20;;;20.00;99.90;;;;;;5036814;28;20277;-72
2024/02/18 11:57:42;;;;;;;1.50;1.40;;;20.30;99.90;;;;;;5038427;28;20238;-73
2024/02/18 12:00:10;;;;;;;1.70;1.58;;;20.50;99.90;;;;;;5040625;28;20826;-72
2024/02/18 12:02:38;;;;;;;1.42;1.38;;;20.50;99.90;;;;;;5014554;28;20214;-72
2024/02/18 12:05:06;;;;;;;1.50;1.40;;;20.50;99.90;;;;;;5037903;28;20225;-72
2024/02/18 12:07:36;;;;;;;1.33;1.23;;;20.60;99.90;;;;;;5037445;28;20243;-72
2024/02/18 12:10:05;;;;;;;1.40;1.30;;;20.70;99.90;;;;;;5017343;28;20621;-73
2024/02/18 12:12:32;;;;;;;1.50;1.40;;;20.90;99.90;;;;;;5034593;28;20265;-72
2024/02/18 12:14:59;;;;;;;1.77;1.55;;;21.00;99.90;;;;;;5034913;28;20226;-72
2024/02/18 12:17:27;;;;;;;1.70;1.60;;;20.60;99.90;;;;;;5033723;28;20292;-72
2024/02/18 12:19:56;;;;;;;1.40;1.30;;;20.60;99.90;;;;;;5037602;28;20203;-72
2024/02/18 12:22:24;;;;;;;1.58;1.48;;;20.80;99.90;;;;;;5041610;28;20223;-72
2024/02/18 12:24:52;;;;;;;1.50;1.40;;;20.70;99.90;;;;;;5040926;28;20248;-72
2024/02/18 12:27:21;;;;;;;1.50;1.40;;;20.50;99.90;;;;;;5020809;28;20809;-72
2024/02/18 12:29:51;;;;;;;1.60;1.50;;;20.40;99.90;;;;;;5035446;28;20246;-72
2024/02/18 12:32:19;;;;;;;1.50;1.40;;;20.30;99.90;;;;;;5035588;28;20222;-72
2024/02/18 12:34:48;;;;;;;1.70;1.60;;;20.10;99.90;;;;;;5039765;28;20226;-72
2024/02/18 12:37:15;;;;;;;1.50;1.40;;;20.10;99.90;;;;;;5036390;28;20243;-72
2024/02/18 12:39:43;;;;;;;1.65;1.55;;;20.10;99.90;;;;;;5043625;28;20203;-72
2024/02/18 12:42:10;;;;;;;1.88;1.63;;;20.00;99.90;;;;;;5036338;28;20247;-72
2024/02/18 12:44:38;;;;;;;1.83;1.40;;;19.70;99.90;;;;;;5025301;28;20202;-72
2024/02/18 12:47:05;;;;;;;1.92;1.73;;;19.70;99.90;;;;;;5038566;28;20637;-72
2024/02/18 12:49:33;;;;;;;1.58;1.48;;;19.50;99.90;;;;;;5038735;28;20247;-72
2024/02/18 12:52:04;;;;;;;2.00;1.70;;;19.50;99.90;;;;;;5041130;28;20779;-73